sensor_id;sensor_type;location;lat;lon;timestamp;P1;durP1;ratioP1;P2;durP2;ratioP2
71095;SDS011;58753;49.440;11.126;2023-03-16T00:02:17;7.20;;;3.77;;
71095;SDS011;58753;49.440;11.126;2023-03-16T00:04:43;12.98;;;4.38;;
71095;SDS011;58753;49.440;11.126;2023-03-16T00:07:11;7.15;;;3.58;;
71095;SDS011;58753;49.440;11.126;2023-03-16T00:09:38;8.38;;;3.30;;
71095;SDS011;58753;49.440;11.126;2023-03-16T00:12:12;10.80;;;3.50;;
71095;SDS011;58753;49.440;11.126;2023-03-16T00:14:43;10.20;;;3.25;;
71095;SDS011;58753;49.440;11.126;2023-03-16T00:17:14;8.02;;;3.67;;
71095;SDS011;58753;49.440;11.126;2023-03-16T00:19:48;7.97;;;3.15;;
71095;SDS011;58753;49.440;11.126;2023-03-16T00:22:19;8.05;;;3.22;;
71095;SDS011;58753;49.440;11.126;2023-03-16T00:24:46;9.93;;;3.50;;
71095;SDS011;58753;49.440;11.126;2023-03-16T00:27:11;8.90;;;3.72;;
71095;SDS011;58753;49.440;11.126;2023-03-16T00:29:38;9.13;;;3.50;;
71095;SDS011;58753;49.440;11.126;2023-03-16T00:32:18;7.57;;;3.67;;
71095;SDS011;58753;49.440;11.126;2023-03-16T00:34:45;9.40;;;3.58;;
71095;SDS011;58753;49.440;11.126;2023-03-16T00:37:12;8.50;;;3.15;;
71095;SDS011;58753;49.440;11.126;2023-03-16T00:39:43;8.32;;;2.88;;
71095;SDS011;58753;49.440;11.126;2023-03-16T00:42:10;10.80;;;3.27;;
71095;SDS011;58753;49.440;11.126;2023-03-16T00:44:37;8.27;;;3.08;;
71095;SDS011;58753;49.440;11.126;2023-03-16T00:47:03;8.68;;;4.30;;
71095;SDS011;58753;49.440;11.126;2023-03-16T00:49:30;10.93;;;3.97;;
71095;SDS011;58753;49.440;11.126;2023-03-16T00:51:59;7.67;;;3.50;;
71095;SDS011;58753;49.440;11.126;2023-03-16T00:54:29;9.38;;;3.50;;
71095;SDS011;58753;49.440;11.126;2023-03-16T00:56:56;6.97;;;3.35;;
71095;SDS011;58753;49.440;11.126;2023-03-16T00:59:26;7.15;;;3.25;;
71095;SDS011;58753;49.440;11.126;2023-03-16T01:01:52;8.02;;;3.80;;
71095;SDS011;58753;49.440;11.126;2023-03-16T01:04:18;6.90;;;3.27;;
71095;SDS011;58753;49.440;11.126;2023-03-16T01:06:44;7.93;;;3.97;;
71095;SDS011;58753;49.440;11.126;2023-03-16T01:09:10;7.97;;;3.38;;
71095;SDS011;58753;49.440;11.126;2023-03-16T01:11:35;7.40;;;3.47;;
71095;SDS011;58753;49.440;11.126;2023-03-16T01:14:01;5.82;;;3.00;;
71095;SDS011;58753;49.440;11.126;2023-03-16T01:16:27;8.40;;;3.50;;
71095;SDS011;58753;49.440;11.126;2023-03-16T01:18:54;8.67;;;3.70;;
71095;SDS011;58753;49.440;11.126;2023-03-16T01:21:21;7.97;;;3.85;;
71095;SDS011;58753;49.440;11.126;2023-03-16T01:23:46;8.25;;;3.08;;
71095;SDS011;58753;49.440;11.126;2023-03-16T01:26:12;9.30;;;4.03;;
71095;SDS011;58753;49.440;11.126;2023-03-16T01:28:40;6.60;;;3.05;;
71095;SDS011;58753;49.440;11.126;2023-03-16T01:31:07;8.73;;;3.50;;
71095;SDS011;58753;49.440;11.126;2023-03-16T01:33:34;7.93;;;3.47;;
71095;SDS011;58753;49.440;11.126;2023-03-16T01:36:02;9.20;;;2.90;;
71095;SDS011;58753;49.440;11.126;2023-03-16T01:38:35;7.63;;;3.55;;
71095;SDS011;58753;49.440;11.126;2023-03-16T01:41:01;7.03;;;2.97;;
71095;SDS011;58753;49.440;11.126;2023-03-16T01:43:29;6.95;;;3.45;;
71095;SDS011;58753;49.440;11.126;2023-03-16T01:48:28;7.78;;;3.25;;
71095;SDS011;58753;49.440;11.126;2023-03-16T01:51:02;7.43;;;2.90;;
71095;SDS011;58753;49.440;11.126;2023-03-16T01:53:49;8.63;;;3.15;;
71095;SDS011;58753;49.440;11.126;2023-03-16T01:56:19;7.15;;;2.75;;
71095;SDS011;58753;49.440;11.126;2023-03-16T01:58:48;6.82;;;2.20;;
71095;SDS011;58753;49.440;11.126;2023-03-16T02:01:16;5.78;;;2.42;;
71095;SDS011;58753;49.440;11.126;2023-03-16T02:03:42;8.37;;;2.97;;
71095;SDS011;58753;49.440;11.126;2023-03-16T02:06:14;7.50;;;2.78;;
71095;SDS011;58753;49.440;11.126;2023-03-16T02:08:42;5.20;;;2.33;;
71095;SDS011;58753;49.440;11.126;2023-03-16T02:11:11;5.32;;;2.65;;
71095;SDS011;58753;49.440;11.126;2023-03-16T02:13:36;6.63;;;2.60;;
71095;SDS011;58753;49.440;11.126;2023-03-16T02:16:03;6.33;;;3.07;;
71095;SDS011;58753;49.440;11.126;2023-03-16T02:18:30;5.97;;;2.43;;
71095;SDS011;58753;49.440;11.126;2023-03-16T02:21:00;5.28;;;2.55;;
71095;SDS011;58753;49.440;11.126;2023-03-16T02:23:49;6.13;;;2.88;;
71095;SDS011;58753;49.440;11.126;2023-03-16T02:26:19;9.32;;;2.75;;
71095;SDS011;58753;49.440;11.126;2023-03-16T02:29:03;6.10;;;2.60;;
71095;SDS011;58753;49.440;11.126;2023-03-16T02:31:35;7.25;;;2.75;;
71095;SDS011;58753;49.440;11.126;2023-03-16T02:34:01;6.80;;;3.17;;
71095;SDS011;58753;49.440;11.126;2023-03-16T02:36:27;6.78;;;3.00;;
71095;SDS011;58753;49.440;11.126;2023-03-16T02:38:54;8.30;;;3.13;;
71095;SDS011;58753;49.440;11.126;2023-03-16T02:41:20;7.57;;;3.03;;
71095;SDS011;58753;49.440;11.126;2023-03-16T02:43:47;5.95;;;2.55;;
71095;SDS011;58753;49.440;11.126;2023-03-16T02:46:18;7.53;;;2.50;;
71095;SDS011;58753;49.440;11.126;2023-03-16T02:48:50;5.95;;;2.33;;
71095;SDS011;58753;49.440;11.126;2023-03-16T02:51:36;8.23;;;2.38;;
71095;SDS011;58753;49.440;11.126;2023-03-16T02:54:01;5.00;;;2.27;;
71095;SDS011;58753;49.440;11.126;2023-03-16T02:56:27;7.27;;;2.73;;
71095;SDS011;58753;49.440;11.126;2023-03-16T02:58:52;5.87;;;2.40;;
71095;SDS011;58753;49.440;11.126;2023-03-16T03:01:18;5.85;;;2.33;;
71095;SDS011;58753;49.440;11.126;2023-03-16T03:03:44;5.57;;;2.40;;
71095;SDS011;58753;49.440;11.126;2023-03-16T03:06:09;6.13;;;2.60;;
71095;SDS011;58753;49.440;11.126;2023-03-16T03:08:35;5.87;;;2.43;;
71095;SDS011;58753;49.440;11.126;2023-03-16T03:11:00;5.57;;;2.42;;
71095;SDS011;58753;49.440;11.126;2023-03-16T03:13:26;5.27;;;2.23;;
71095;SDS011;58753;49.440;11.126;2023-03-16T03:15:52;8.37;;;2.53;;
71095;SDS011;58753;49.440;11.126;2023-03-16T03:18:17;7.15;;;2.92;;
71095;SDS011;58753;49.440;11.126;2023-03-16T03:20:43;9.20;;;2.83;;
71095;SDS011;58753;49.440;11.126;2023-03-16T03:23:08;9.10;;;2.67;;
71095;SDS011;58753;49.440;11.126;2023-03-16T03:25:34;6.93;;;2.70;;
71095;SDS011;58753;49.440;11.126;2023-03-16T03:27:59;7.77;;;2.53;;
71095;SDS011;58753;49.440;11.126;2023-03-16T03:30:27;4.93;;;2.28;;
71095;SDS011;58753;49.440;11.126;2023-03-16T03:32:53;5.45;;;2.90;;
71095;SDS011;58753;49.440;11.126;2023-03-16T03:35:19;4.97;;;2.60;;
71095;SDS011;58753;49.440;11.126;2023-03-16T03:37:45;5.75;;;2.60;;
71095;SDS011;58753;49.440;11.126;2023-03-16T03:40:11;8.30;;;2.90;;
71095;SDS011;58753;49.440;11.126;2023-03-16T03:42:38;5.87;;;2.50;;
71095;SDS011;58753;49.440;11.126;2023-03-16T03:45:05;5.75;;;2.40;;
71095;SDS011;58753;49.440;11.126;2023-03-16T03:47:31;6.53;;;2.60;;
71095;SDS011;58753;49.440;11.126;2023-03-16T03:49:57;5.87;;;2.03;;
71095;SDS011;58753;49.440;11.126;2023-03-16T03:52:22;8.77;;;2.60;;
71095;SDS011;58753;49.440;11.126;2023-03-16T03:54:48;6.20;;;2.35;;
71095;SDS011;58753;49.440;11.126;2023-03-16T03:57:13;6.57;;;2.73;;
71095;SDS011;58753;49.440;11.126;2023-03-16T03:59:38;5.63;;;2.40;;
71095;SDS011;58753;49.440;11.126;2023-03-16T04:02:11;5.03;;;2.63;;
71095;SDS011;58753;49.440;11.126;2023-03-16T04:04:37;5.30;;;2.53;;
71095;SDS011;58753;49.440;11.126;2023-03-16T04:07:04;7.75;;;2.88;;
71095;SDS011;58753;49.440;11.126;2023-03-16T04:09:29;7.07;;;3.43;;
71095;SDS011;58753;49.440;11.126;2023-03-16T04:11:58;5.25;;;2.15;;
71095;SDS011;58753;49.440;11.126;2023-03-16T04:14:24;5.45;;;2.42;;
71095;SDS011;58753;49.440;11.126;2023-03-16T04:16:50;5.10;;;2.20;;
71095;SDS011;58753;49.440;11.126;2023-03-16T04:19:15;7.93;;;2.77;;
71095;SDS011;58753;49.440;11.126;2023-03-16T04:21:41;5.93;;;2.77;;
71095;SDS011;58753;49.440;11.126;2023-03-16T04:24:06;4.82;;;1.85;;
71095;SDS011;58753;49.440;11.126;2023-03-16T04:26:31;5.40;;;2.37;;
71095;SDS011;58753;49.440;11.126;2023-03-16T04:28:58;5.80;;;2.47;;
71095;SDS011;58753;49.440;11.126;2023-03-16T04:31:24;8.50;;;3.20;;
71095;SDS011;58753;49.440;11.126;2023-03-16T04:33:49;6.70;;;2.95;;
71095;SDS011;58753;49.440;11.126;2023-03-16T04:36:18;7.88;;;2.25;;
71095;SDS011;58753;49.440;11.126;2023-03-16T04:38:48;5.57;;;2.57;;
71095;SDS011;58753;49.440;11.126;2023-03-16T04:41:13;5.40;;;2.30;;
71095;SDS011;58753;49.440;11.126;2023-03-16T04:43:39;7.50;;;3.13;;
71095;SDS011;58753;49.440;11.126;2023-03-16T04:46:04;6.57;;;2.37;;
71095;SDS011;58753;49.440;11.126;2023-03-16T04:48:30;5.97;;;2.10;;
71095;SDS011;58753;49.440;11.126;2023-03-16T04:50:56;7.35;;;2.22;;
71095;SDS011;58753;49.440;11.126;2023-03-16T04:53:29;6.95;;;2.42;;
71095;SDS011;58753;49.440;11.126;2023-03-16T04:55:55;5.07;;;2.20;;
71095;SDS011;58753;49.440;11.126;2023-03-16T04:58:21;6.10;;;2.38;;
71095;SDS011;58753;49.440;11.126;2023-03-16T05:00:56;5.55;;;2.47;;
71095;SDS011;58753;49.440;11.126;2023-03-16T05:03:22;7.67;;;2.40;;
71095;SDS011;58753;49.440;11.126;2023-03-16T05:05:47;6.15;;;2.28;;
71095;SDS011;58753;49.440;11.126;2023-03-16T05:08:13;5.28;;;2.60;;
71095;SDS011;58753;49.440;11.126;2023-03-16T05:10:39;5.37;;;2.27;;
71095;SDS011;58753;49.440;11.126;2023-03-16T05:13:05;5.17;;;1.87;;
71095;SDS011;58753;49.440;11.126;2023-03-16T05:15:31;5.90;;;1.92;;
71095;SDS011;58753;49.440;11.126;2023-03-16T05:17:57;6.20;;;2.45;;
71095;SDS011;58753;49.440;11.126;2023-03-16T05:20:22;5.60;;;2.20;;
71095;SDS011;58753;49.440;11.126;2023-03-16T05:22:48;5.10;;;2.77;;
71095;SDS011;58753;49.440;11.126;2023-03-16T05:25:14;4.93;;;2.28;;
71095;SDS011;58753;49.440;11.126;2023-03-16T05:27:41;5.17;;;2.10;;
71095;SDS011;58753;49.440;11.126;2023-03-16T05:30:08;6.22;;;2.50;;
71095;SDS011;58753;49.440;11.126;2023-03-16T05:32:34;6.28;;;2.22;;
71095;SDS011;58753;49.440;11.126;2023-03-16T05:35:00;7.33;;;1.97;;
71095;SDS011;58753;49.440;11.126;2023-03-16T05:37:28;5.70;;;2.00;;
71095;SDS011;58753;49.440;11.126;2023-03-16T05:39:55;8.07;;;2.47;;
71095;SDS011;58753;49.440;11.126;2023-03-16T05:42:21;7.35;;;2.08;;
71095;SDS011;58753;49.440;11.126;2023-03-16T05:44:47;7.70;;;2.50;;
71095;SDS011;58753;49.440;11.126;2023-03-16T05:47:13;4.82;;;1.80;;
71095;SDS011;58753;49.440;11.126;2023-03-16T05:49:38;11.13;;;2.40;;
71095;SDS011;58753;49.440;11.126;2023-03-16T05:52:03;3.87;;;1.67;;
71095;SDS011;58753;49.440;11.126;2023-03-16T05:54:29;5.47;;;2.13;;
71095;SDS011;58753;49.440;11.126;2023-03-16T05:56:54;5.87;;;2.37;;
71095;SDS011;58753;49.440;11.126;2023-03-16T05:59:20;4.50;;;2.17;;
71095;SDS011;58753;49.440;11.126;2023-03-16T06:01:45;8.27;;;1.93;;
71095;SDS011;58753;49.440;11.126;2023-03-16T06:04:10;4.90;;;2.00;;
71095;SDS011;58753;49.440;11.126;2023-03-16T06:06:36;8.57;;;2.20;;
71095;SDS011;58753;49.440;11.126;2023-03-16T06:09:02;7.27;;;2.40;;
71095;SDS011;58753;49.440;11.126;2023-03-16T06:11:28;5.43;;;2.03;;
71095;SDS011;58753;49.440;11.126;2023-03-16T06:13:53;5.57;;;2.63;;
71095;SDS011;58753;49.440;11.126;2023-03-16T06:16:21;6.55;;;2.50;;
71095;SDS011;58753;49.440;11.126;2023-03-16T06:18:47;5.63;;;2.27;;
71095;SDS011;58753;49.440;11.126;2023-03-16T06:21:12;5.97;;;2.35;;
71095;SDS011;58753;49.440;11.126;2023-03-16T06:23:38;11.53;;;2.43;;
71095;SDS011;58753;49.440;11.126;2023-03-16T06:26:03;5.57;;;1.70;;
71095;SDS011;58753;49.440;11.126;2023-03-16T06:28:29;8.20;;;2.72;;
71095;SDS011;58753;49.440;11.126;2023-03-16T06:30:55;6.27;;;3.10;;
71095;SDS011;58753;49.440;11.126;2023-03-16T06:33:22;6.07;;;2.72;;
71095;SDS011;58753;49.440;11.126;2023-03-16T06:35:48;6.60;;;2.90;;
71095;SDS011;58753;49.440;11.126;2023-03-16T06:38:14;9.30;;;3.57;;
71095;SDS011;58753;49.440;11.126;2023-03-16T06:40:40;7.67;;;3.47;;
71095;SDS011;58753;49.440;11.126;2023-03-16T06:43:05;6.75;;;3.67;;
71095;SDS011;58753;49.440;11.126;2023-03-16T06:45:31;7.65;;;3.05;;
71095;SDS011;58753;49.440;11.126;2023-03-16T06:47:57;7.93;;;3.70;;
71095;SDS011;58753;49.440;11.126;2023-03-16T06:50:23;8.80;;;3.87;;
71095;SDS011;58753;49.440;11.126;2023-03-16T06:52:48;8.73;;;3.60;;
71095;SDS011;58753;49.440;11.126;2023-03-16T06:55:13;8.37;;;3.60;;
71095;SDS011;58753;49.440;11.126;2023-03-16T06:57:39;6.83;;;3.50;;
71095;SDS011;58753;49.440;11.126;2023-03-16T07:00:06;9.52;;;3.92;;
71095;SDS011;58753;49.440;11.126;2023-03-16T07:02:33;8.38;;;3.75;;
71095;SDS011;58753;49.440;11.126;2023-03-16T07:04:59;8.33;;;3.60;;
71095;SDS011;58753;49.440;11.126;2023-03-16T07:07:26;9.00;;;3.72;;
71095;SDS011;58753;49.440;11.126;2023-03-16T07:09:51;7.67;;;3.60;;
71095;SDS011;58753;49.440;11.126;2023-03-16T07:12:17;10.50;;;3.83;;
71095;SDS011;58753;49.440;11.126;2023-03-16T07:14:42;7.97;;;3.27;;
71095;SDS011;58753;49.440;11.126;2023-03-16T07:17:08;9.63;;;3.70;;
71095;SDS011;58753;49.440;11.126;2023-03-16T07:19:33;8.95;;;3.97;;
71095;SDS011;58753;49.440;11.126;2023-03-16T07:21:59;10.53;;;3.53;;
71095;SDS011;58753;49.440;11.126;2023-03-16T07:24:24;8.50;;;4.07;;
71095;SDS011;58753;49.440;11.126;2023-03-16T07:26:50;8.18;;;3.58;;
71095;SDS011;58753;49.440;11.126;2023-03-16T07:29:17;9.33;;;3.60;;
71095;SDS011;58753;49.440;11.126;2023-03-16T07:31:42;6.70;;;3.25;;
71095;SDS011;58753;49.440;11.126;2023-03-16T07:34:08;8.77;;;3.80;;
71095;SDS011;58753;49.440;11.126;2023-03-16T07:36:33;6.40;;;3.23;;
71095;SDS011;58753;49.440;11.126;2023-03-16T07:38:59;9.55;;;3.28;;
71095;SDS011;58753;49.440;11.126;2023-03-16T07:41:25;8.70;;;2.83;;
71095;SDS011;58753;49.440;11.126;2023-03-16T07:43:51;11.70;;;3.53;;
71095;SDS011;58753;49.440;11.126;2023-03-16T07:46:17;6.20;;;2.65;;
71095;SDS011;58753;49.440;11.126;2023-03-16T07:48:43;9.97;;;3.20;;
71095;SDS011;58753;49.440;11.126;2023-03-16T07:51:09;8.35;;;2.58;;
71095;SDS011;58753;49.440;11.126;2023-03-16T07:53:36;9.25;;;3.15;;
71095;SDS011;58753;49.440;11.126;2023-03-16T07:56:02;9.65;;;2.83;;
71095;SDS011;58753;49.440;11.126;2023-03-16T07:58:28;8.07;;;3.22;;
71095;SDS011;58753;49.440;11.126;2023-03-16T08:00:59;5.20;;;2.20;;
71095;SDS011;58753;49.440;11.126;2023-03-16T08:03:26;5.82;;;2.30;;
71095;SDS011;58753;49.440;11.126;2023-03-16T08:05:52;5.35;;;2.72;;
71095;SDS011;58753;49.440;11.126;2023-03-16T08:08:18;8.83;;;2.73;;
71095;SDS011;58753;49.440;11.126;2023-03-16T08:10:45;9.60;;;3.22;;
71095;SDS011;58753;49.440;11.126;2023-03-16T08:13:11;7.30;;;2.95;;
71095;SDS011;58753;49.440;11.126;2023-03-16T08:15:38;6.40;;;2.38;;
71095;SDS011;58753;49.440;11.126;2023-03-16T08:18:04;9.48;;;4.25;;
71095;SDS011;58753;49.440;11.126;2023-03-16T08:20:31;9.13;;;3.73;;
71095;SDS011;58753;49.440;11.126;2023-03-16T08:22:57;15.52;;;2.85;;
71095;SDS011;58753;49.440;11.126;2023-03-16T08:25:23;7.15;;;2.60;;
71095;SDS011;58753;49.440;11.126;2023-03-16T08:27:48;5.43;;;2.90;;
71095;SDS011;58753;49.440;11.126;2023-03-16T08:30:14;5.80;;;3.10;;
71095;SDS011;58753;49.440;11.126;2023-03-16T08:32:40;4.77;;;2.00;;
71095;SDS011;58753;49.440;11.126;2023-03-16T08:35:10;7.03;;;2.22;;
71095;SDS011;58753;49.440;11.126;2023-03-16T08:37:38;8.80;;;2.37;;
71095;SDS011;58753;49.440;11.126;2023-03-16T08:40:05;6.22;;;2.70;;
71095;SDS011;58753;49.440;11.126;2023-03-16T08:42:34;6.65;;;2.50;;
71095;SDS011;58753;49.440;11.126;2023-03-16T08:45:02;6.55;;;1.88;;
71095;SDS011;58753;49.440;11.126;2023-03-16T08:47:33;5.53;;;2.55;;
71095;SDS011;58753;49.440;11.126;2023-03-16T08:50:00;4.30;;;1.77;;
71095;SDS011;58753;49.440;11.126;2023-03-16T08:52:25;5.13;;;2.08;;
71095;SDS011;58753;49.440;11.126;2023-03-16T08:54:51;8.10;;;2.03;;
71095;SDS011;58753;49.440;11.126;2023-03-16T08:57:17;5.63;;;2.20;;
71095;SDS011;58753;49.440;11.126;2023-03-16T08:59:42;9.27;;;2.20;;
71095;SDS011;58753;49.440;11.126;2023-03-16T09:02:10;4.95;;;2.13;;
71095;SDS011;58753;49.440;11.126;2023-03-16T09:04:38;12.50;;;3.03;;
71095;SDS011;58753;49.440;11.126;2023-03-16T09:07:04;4.78;;;2.13;;
71095;SDS011;58753;49.440;11.126;2023-03-16T09:09:29;6.50;;;1.90;;
71095;SDS011;58753;49.440;11.126;2023-03-16T09:11:55;8.98;;;2.70;;
71095;SDS011;58753;49.440;11.126;2023-03-16T09:14:21;7.43;;;1.90;;
71095;SDS011;58753;49.440;11.126;2023-03-16T09:16:47;4.60;;;1.23;;
71095;SDS011;58753;49.440;11.126;2023-03-16T09:19:12;5.73;;;1.60;;
71095;SDS011;58753;49.440;11.126;2023-03-16T09:21:38;4.10;;;1.58;;
71095;SDS011;58753;49.440;11.126;2023-03-16T09:24:04;2.57;;;1.33;;
71095;SDS011;58753;49.440;11.126;2023-03-16T09:26:31;4.45;;;1.73;;
71095;SDS011;58753;49.440;11.126;2023-03-16T09:28:57;3.73;;;1.80;;
71095;SDS011;58753;49.440;11.126;2023-03-16T09:31:22;4.50;;;1.83;;
71095;SDS011;58753;49.440;11.126;2023-03-16T09:33:48;3.27;;;1.50;;
71095;SDS011;58753;49.440;11.126;2023-03-16T09:36:14;12.00;;;1.30;;
71095;SDS011;58753;49.440;11.126;2023-03-16T09:38:40;4.27;;;1.70;;
71095;SDS011;58753;49.440;11.126;2023-03-16T09:41:14;3.55;;;1.13;;
71095;SDS011;58753;49.440;11.126;2023-03-16T09:44:10;4.85;;;1.40;;
71095;SDS011;58753;49.440;11.126;2023-03-16T09:46:44;4.65;;;1.70;;
71095;SDS011;58753;49.440;11.126;2023-03-16T09:49:19;6.63;;;2.10;;
71095;SDS011;58753;49.440;11.126;2023-03-16T09:52:03;5.57;;;2.17;;
71095;SDS011;58753;49.440;11.126;2023-03-16T09:54:58;5.35;;;2.17;;
71095;SDS011;58753;49.440;11.126;2023-03-16T09:57:48;3.60;;;1.13;;
71095;SDS011;58753;49.440;11.126;2023-03-16T10:00:16;4.68;;;1.38;;
71095;SDS011;58753;49.440;11.126;2023-03-16T10:05:33;4.83;;;2.33;;
71095;SDS011;58753;49.440;11.126;2023-03-16T10:16:28;2.38;;;1.20;;
71095;SDS011;58753;49.440;11.126;2023-03-16T10:21:40;5.22;;;1.38;;
71095;SDS011;58753;49.440;11.126;2023-03-16T10:24:14;6.95;;;1.27;;
71095;SDS011;58753;49.440;11.126;2023-03-16T10:26:51;4.27;;;0.80;;
71095;SDS011;58753;49.440;11.126;2023-03-16T10:29:20;5.43;;;1.30;;
71095;SDS011;58753;49.440;11.126;2023-03-16T10:31:45;1.75;;;0.70;;
71095;SDS011;58753;49.440;11.126;2023-03-16T10:34:11;2.60;;;0.90;;
71095;SDS011;58753;49.440;11.126;2023-03-16T10:36:38;2.00;;;0.73;;
71095;SDS011;58753;49.440;11.126;2023-03-16T10:39:09;1.10;;;0.63;;
71095;SDS011;58753;49.440;11.126;2023-03-16T10:41:37;2.63;;;0.95;;
71095;SDS011;58753;49.440;11.126;2023-03-16T10:44:14;7.90;;;4.47;;
71095;SDS011;58753;49.440;11.126;2023-03-16T10:46:41;10.65;;;4.28;;
71095;SDS011;58753;49.440;11.126;2023-03-16T10:49:45;10.23;;;5.57;;
71095;SDS011;58753;49.440;11.126;2023-03-16T10:52:13;5.33;;;2.60;;
71095;SDS011;58753;49.440;11.126;2023-03-16T10:54:57;8.50;;;1.67;;
71095;SDS011;58753;49.440;11.126;2023-03-16T10:57:28;4.72;;;1.67;;
71095;SDS011;58753;49.440;11.126;2023-03-16T10:59:59;3.92;;;1.60;;
71095;SDS011;58753;49.440;11.126;2023-03-16T11:02:34;4.38;;;1.63;;
71095;SDS011;58753;49.440;11.126;2023-03-16T11:05:42;3.37;;;1.50;;
71095;SDS011;58753;49.440;11.126;2023-03-16T11:10:29;3.65;;;1.35;;
71095;SDS011;58753;49.440;11.126;2023-03-16T11:13:17;2.73;;;1.27;;
71095;SDS011;58753;49.440;11.126;2023-03-16T11:15:46;4.05;;;1.33;;
71095;SDS011;58753;49.440;11.126;2023-03-16T11:21:01;3.20;;;1.45;;
71095;SDS011;58753;49.440;11.126;2023-03-16T11:23:37;2.08;;;1.10;;
71095;SDS011;58753;49.440;11.126;2023-03-16T11:26:09;2.93;;;1.53;;
71095;SDS011;58753;49.440;11.126;2023-03-16T11:28:46;3.30;;;1.50;;
71095;SDS011;58753;49.440;11.126;2023-03-16T11:31:40;6.53;;;1.98;;
71095;SDS011;58753;49.440;11.126;2023-03-16T11:34:31;4.47;;;1.70;;
71095;SDS011;58753;49.440;11.126;2023-03-16T11:37:20;3.58;;;1.65;;
71095;SDS011;58753;49.440;11.126;2023-03-16T11:43:00;3.28;;;1.50;;
71095;SDS011;58753;49.440;11.126;2023-03-16T11:48:35;3.28;;;1.55;;
71095;SDS011;58753;49.440;11.126;2023-03-16T11:51:42;3.05;;;1.60;;
71095;SDS011;58753;49.440;11.126;2023-03-16T11:57:30;3.35;;;1.70;;
71095;SDS011;58753;49.440;11.126;2023-03-16T12:00:16;4.45;;;1.75;;
71095;SDS011;58753;49.440;11.126;2023-03-16T12:02:53;3.63;;;1.55;;
71095;SDS011;58753;49.440;11.126;2023-03-16T12:11:15;4.10;;;1.53;;
71095;SDS011;58753;49.440;11.126;2023-03-16T12:19:23;2.90;;;1.60;;
71095;SDS011;58753;49.440;11.126;2023-03-16T12:22:13;4.28;;;1.98;;
71095;SDS011;58753;49.440;11.126;2023-03-16T12:24:45;2.93;;;1.80;;
71095;SDS011;58753;49.440;11.126;2023-03-16T12:27:16;3.40;;;2.20;;
71095;SDS011;58753;49.440;11.126;2023-03-16T12:30:01;2.92;;;1.60;;
71095;SDS011;58753;49.440;11.126;2023-03-16T12:45:10;3.72;;;2.63;;
71095;SDS011;58753;49.440;11.126;2023-03-16T12:50:22;3.92;;;2.20;;
71095;SDS011;58753;49.440;11.126;2023-03-16T12:52:49;4.50;;;2.00;;
71095;SDS011;58753;49.440;11.126;2023-03-16T12:55:17;4.10;;;2.13;;
71095;SDS011;58753;49.440;11.126;2023-03-16T12:58:03;3.33;;;2.20;;
71095;SDS011;58753;49.440;11.126;2023-03-16T13:00:34;6.55;;;2.45;;
71095;SDS011;58753;49.440;11.126;2023-03-16T13:03:01;4.68;;;2.13;;
71095;SDS011;58753;49.440;11.126;2023-03-16T13:05:30;3.07;;;1.43;;
71095;SDS011;58753;49.440;11.126;2023-03-16T13:08:12;7.23;;;2.13;;
71095;SDS011;58753;49.440;11.126;2023-03-16T13:10:39;2.83;;;1.48;;
71095;SDS011;58753;49.440;11.126;2023-03-16T13:13:15;3.58;;;1.70;;
71095;SDS011;58753;49.440;11.126;2023-03-16T13:15:42;3.35;;;2.20;;
71095;SDS011;58753;49.440;11.126;2023-03-16T13:28:40;2.70;;;1.67;;
71095;SDS011;58753;49.440;11.126;2023-03-16T13:32:13;2.70;;;1.92;;
71095;SDS011;58753;49.440;11.126;2023-03-16T13:34:11;3.17;;;2.00;;
71095;SDS011;58753;49.440;11.126;2023-03-16T13:36:39;4.10;;;2.13;;
71095;SDS011;58753;49.440;11.126;2023-03-16T13:39:20;3.03;;;2.17;;
71095;SDS011;58753;49.440;11.126;2023-03-16T13:41:54;3.97;;;1.95;;
71095;SDS011;58753;49.440;11.126;2023-03-16T13:44:23;2.80;;;2.05;;
71095;SDS011;58753;49.440;11.126;2023-03-16T13:46:50;3.93;;;2.10;;
71095;SDS011;58753;49.440;11.126;2023-03-16T13:49:16;2.30;;;1.70;;
71095;SDS011;58753;49.440;11.126;2023-03-16T13:51:42;3.35;;;1.90;;
71095;SDS011;58753;49.440;11.126;2023-03-16T13:54:26;2.72;;;2.00;;
71095;SDS011;58753;49.440;11.126;2023-03-16T13:57:00;4.43;;;2.38;;
71095;SDS011;58753;49.440;11.126;2023-03-16T13:59:30;3.08;;;2.03;;
71095;SDS011;58753;49.440;11.126;2023-03-16T14:01:56;3.13;;;1.80;;
71095;SDS011;58753;49.440;11.126;2023-03-16T14:04:27;4.35;;;1.70;;
71095;SDS011;58753;49.440;11.126;2023-03-16T14:06:59;2.45;;;1.60;;
71095;SDS011;58753;49.440;11.126;2023-03-16T14:09:30;4.93;;;2.00;;
71095;SDS011;58753;49.440;11.126;2023-03-16T14:11:58;3.30;;;2.00;;
71095;SDS011;58753;49.440;11.126;2023-03-16T14:14:26;4.85;;;1.67;;
71095;SDS011;58753;49.440;11.126;2023-03-16T14:17:02;4.43;;;2.08;;
71095;SDS011;58753;49.440;11.126;2023-03-16T14:19:37;4.75;;;2.05;;
71095;SDS011;58753;49.440;11.126;2023-03-16T14:22:15;4.10;;;1.97;;
71095;SDS011;58753;49.440;11.126;2023-03-16T14:24:56;3.30;;;2.03;;
71095;SDS011;58753;49.440;11.126;2023-03-16T14:27:30;2.60;;;1.60;;
71095;SDS011;58753;49.440;11.126;2023-03-16T14:30:18;3.83;;;1.75;;
71095;SDS011;58753;49.440;11.126;2023-03-16T14:32:53;3.55;;;2.17;;
71095;SDS011;58753;49.440;11.126;2023-03-16T14:35:27;2.70;;;1.85;;
71095;SDS011;58753;49.440;11.126;2023-03-16T14:37:55;3.80;;;2.03;;
71095;SDS011;58753;49.440;11.126;2023-03-16T14:42:46;3.07;;;2.10;;
71095;SDS011;58753;49.440;11.126;2023-03-16T14:45:12;3.85;;;1.88;;
71095;SDS011;58753;49.440;11.126;2023-03-16T14:47:41;5.57;;;2.03;;
71095;SDS011;58753;49.440;11.126;2023-03-16T14:50:30;3.88;;;2.30;;
71095;SDS011;58753;49.440;11.126;2023-03-16T14:52:56;2.63;;;1.50;;
71095;SDS011;58753;49.440;11.126;2023-03-16T14:55:21;5.90;;;2.00;;
71095;SDS011;58753;49.440;11.126;2023-03-16T14:57:48;3.45;;;1.80;;
71095;SDS011;58753;49.440;11.126;2023-03-16T15:00:15;3.20;;;1.88;;
71095;SDS011;58753;49.440;11.126;2023-03-16T15:02:43;3.13;;;1.80;;
71095;SDS011;58753;49.440;11.126;2023-03-16T15:05:27;6.30;;;2.10;;
71095;SDS011;58753;49.440;11.126;2023-03-16T15:07:55;3.55;;;1.92;;
71095;SDS011;58753;49.440;11.126;2023-03-16T15:10:23;3.95;;;2.20;;
71095;SDS011;58753;49.440;11.126;2023-03-16T15:12:51;4.43;;;1.77;;
71095;SDS011;58753;49.440;11.126;2023-03-16T15:15:30;3.17;;;1.40;;
71095;SDS011;58753;49.440;11.126;2023-03-16T15:17:56;4.00;;;2.00;;
71095;SDS011;58753;49.440;11.126;2023-03-16T15:20:24;5.07;;;2.08;;
71095;SDS011;58753;49.440;11.126;2023-03-16T15:22:54;4.22;;;2.13;;
71095;SDS011;58753;49.440;11.126;2023-03-16T15:25:35;3.27;;;1.73;;
71095;SDS011;58753;49.440;11.126;2023-03-16T15:28:15;4.13;;;2.10;;
71095;SDS011;58753;49.440;11.126;2023-03-16T15:30:46;3.70;;;2.15;;
71095;SDS011;58753;49.440;11.126;2023-03-16T15:33:13;4.00;;;1.77;;
71095;SDS011;58753;49.440;11.126;2023-03-16T15:35:40;3.65;;;2.08;;
71095;SDS011;58753;49.440;11.126;2023-03-16T15:38:10;3.50;;;1.80;;
71095;SDS011;58753;49.440;11.126;2023-03-16T15:40:38;3.63;;;1.73;;
71095;SDS011;58753;49.440;11.126;2023-03-16T15:43:10;3.30;;;2.17;;
71095;SDS011;58753;49.440;11.126;2023-03-16T15:45:36;3.47;;;1.73;;
71095;SDS011;58753;49.440;11.126;2023-03-16T15:48:02;3.93;;;2.13;;
71095;SDS011;58753;49.440;11.126;2023-03-16T15:50:27;3.50;;;1.70;;
71095;SDS011;58753;49.440;11.126;2023-03-16T15:52:57;6.00;;;2.60;;
71095;SDS011;58753;49.440;11.126;2023-03-16T15:55:33;4.13;;;2.05;;
71095;SDS011;58753;49.440;11.126;2023-03-16T15:58:01;3.45;;;2.30;;